Time;durP1;ratioP1;P1;durP2;ratioP2;P2;SDS_P1;SDS_P2;PMS_P1;PMS_P2;Temp;Humidity;BMP_temperature;BMP_pressure;BME280_temperature;BME280_humidity;BME280_pressure;Samples;Min_cycle;Max_cycle;Signal;HPM_P1;HPM_P2
2021/12/27 00:01:34;;;;;;;28.05;17.98;;;;;;;9.29;29.24;98738.25;4482610;32;33463;-84
2021/12/27 00:04:02;;;;;;;27.00;17.20;;;;;;;9.36;28.28;98729.72;4480557;32;33802;-85
2021/12/27 00:06:30;;;;;;;29.25;18.10;;;;;;;9.05;29.55;98735.37;4481045;32;33837;-83
2021/12/27 00:08:58;;;;;;;28.95;18.48;;;;;;;8.63;29.13;98736.56;4480764;32;32807;-83
2021/12/27 00:11:26;;;;;;;26.62;17.05;;;;;;;8.51;29.20;98734.69;4482175;32;34748;-83
2021/12/27 00:13:53;;;;;;;29.08;17.17;;;;;;;9.01;29.04;98721.53;4480871;32;34888;-82
2021/12/27 00:16:21;;;;;;;28.73;17.23;;;;;;;9.04;28.79;98719.00;4480876;32;34002;-83
2021/12/27 00:18:48;;;;;;;27.25;16.30;;;;;;;9.42;28.73;98708.19;4480126;32;33283;-87
2021/12/27 00:21:16;;;;;;;28.30;16.75;;;;;;;8.84;29.72;98717.91;4481925;32;33602;-84
2021/12/27 00:23:43;;;;;;;27.33;16.08;;;;;;;8.28;29.18;98721.41;4482016;32;34182;-83
2021/12/27 00:26:11;;;;;;;27.08;16.40;;;;;;;8.47;29.31;98727.72;4480730;32;33229;-86
2021/12/27 00:28:39;;;;;;;24.10;15.32;;;;;;;8.49;29.79;98731.22;4481897;32;33203;-81
2021/12/27 00:31:06;;;;;;;27.08;16.05;;;;;;;8.77;30.09;98724.69;4467809;32;31161;-86
2021/12/27 00:33:34;;;;;;;24.85;15.30;;;;;;;9.11;29.85;98723.38;4472774;32;35032;-86
2021/12/27 00:36:01;;;;;;;23.40;14.90;;;;;;;8.83;29.71;98729.09;4480524;32;34151;-85
2021/12/27 00:38:29;;;;;;;22.83;15.43;;;;;;;8.87;29.29;98723.97;4480371;32;33972;-86
2021/12/27 00:40:56;;;;;;;23.85;15.80;;;;;;;8.80;29.16;98731.62;4481068;32;34808;-84
2021/12/27 00:43:24;;;;;;;22.83;14.75;;;;;;;8.87;29.59;98733.44;4482043;32;34711;-89
2021/12/27 00:45:51;;;;;;;22.70;14.45;;;;;;;8.97;30.21;98730.09;4481387;32;33584;-89
2021/12/27 00:48:19;;;;;;;21.90;13.85;;;;;;;9.04;29.45;98736.22;4481901;32;33575;-85
2021/12/27 00:50:46;;;;;;;25.27;14.02;;;;;;;9.04;28.62;98726.75;4480634;32;33580;-87
2021/12/27 00:53:14;;;;;;;22.17;14.77;;;;;;;8.72;28.58;98732.41;4477771;32;34287;-85
2021/12/27 00:55:41;;;;;;;23.08;15.07;;;;;;;8.78;28.36;98734.19;4482195;32;34051;-88
2021/12/27 00:58:10;;;;;;;21.98;13.52;;;;;;;8.95;29.25;98719.75;4482499;32;34253;-84
2021/12/27 01:00:38;;;;;;;23.80;15.55;;;;;;;8.81;28.77;98728.19;4482463;32;33783;-88
2021/12/27 01:03:06;;;;;;;23.38;14.63;;;;;;;8.76;28.11;98721.25;4481888;32;34270;-88
2021/12/27 01:05:33;;;;;;;21.98;15.10;;;;;;;8.99;27.78;98718.06;4482651;32;34780;-84
2021/12/27 01:08:01;;;;;;;27.30;17.05;;;;;;;9.20;27.43;98707.09;4481400;32;33198;-85
2021/12/27 01:16:02;;;;;;;25.73;16.73;;;;;;;8.91;28.16;98723.16;4468201;32;32694;-88
2021/12/27 01:18:30;;;;;;;25.90;16.73;;;;;;;9.02;28.19;98723.28;4475545;32;33536;-87
2021/12/27 01:20:58;;;;;;;24.55;15.00;;;;;;;9.14;28.33;98727.72;4482408;32;34031;-87
2021/12/27 01:23:25;;;;;;;26.23;16.58;;;;;;;8.84;28.71;98733.41;4482240;32;35062;-83
2021/12/27 01:25:53;;;;;;;26.25;16.05;;;;;;;8.41;29.28;98730.22;4481408;32;34865;-86
2021/12/27 01:28:20;;;;;;;25.92;14.80;;;;;;;8.97;28.50;98724.94;4481079;32;33472;-84
2021/12/27 01:30:49;;;;;;;24.58;15.68;;;;;;;8.86;28.76;98721.34;4482088;32;34673;-84
2021/12/27 01:33:19;;;;;;;28.73;17.02;;;;;;;8.48;29.28;98712.25;4481811;32;34951;-88
2021/12/27 01:35:48;;;;;;;26.73;16.62;;;;;;;8.59;29.04;98714.13;4481863;32;33966;-88
2021/12/27 01:38:16;;;;;;;24.83;16.42;;;;;;;9.00;28.93;98699.13;4482139;32;33271;-88
2021/12/27 01:40:47;;;;;;;24.83;16.20;;;;;;;8.75;29.30;98711.75;4482136;32;34530;-87
2021/12/27 01:43:22;;;;;;;23.38;14.65;;;;;;;8.68;30.11;98717.69;4480822;32;33933;-88
2021/12/27 01:45:57;;;;;;;23.20;14.50;;;;;;;9.10;29.47;98715.63;4480522;32;34746;-84
2021/12/27 01:48:29;;;;;;;22.67;14.70;;;;;;;9.36;28.98;98697.81;4481713;32;34425;-83
2021/12/27 01:50:58;;;;;;;26.30;15.10;;;;;;;8.88;30.37;98694.69;4480407;32;33966;-85
2021/12/27 01:53:28;;;;;;;26.87;14.93;;;;;;;8.83;29.66;98700.66;4481611;31;34801;-83
2021/12/27 01:55:55;;;;;;;22.95;14.35;;;;;;;8.32;30.29;98706.81;4480449;32;33425;-88
2021/12/27 01:58:24;;;;;;;23.42;15.10;;;;;;;8.76;30.08;98707.47;4481489;32;32680;-88
2021/12/27 02:00:54;;;;;;;24.25;15.07;;;;;;;8.14;30.71;98708.28;4481351;32;33956;-85
2021/12/27 02:03:26;;;;;;;23.10;14.93;;;;;;;8.39;30.47;98708.69;4480564;32;33886;-84
2021/12/27 02:05:54;;;;;;;21.85;13.82;;;;;;;8.84;29.87;98715.31;4481926;32;34126;-88
2021/12/27 02:08:22;;;;;;;22.13;14.10;;;;;;;8.76;30.64;98720.37;4480395;32;34210;-84
2021/12/27 02:10:50;;;;;;;21.55;14.13;;;;;;;8.90;30.16;98708.50;4480364;32;34094;-84
2021/12/27 02:13:18;;;;;;;23.62;13.23;;;;;;;8.85;30.03;98711.88;4481315;32;35324;-89
2021/12/27 02:15:48;;;;;;;25.52;15.40;;;;;;;8.87;30.13;98711.06;4481338;32;33870;-86
2021/12/27 02:18:16;;;;;;;25.33;14.60;;;;;;;8.52;30.18;98710.56;4481710;32;33663;-84
2021/12/27 02:20:44;;;;;;;23.48;16.45;;;;;;;8.39;30.05;98704.38;4483744;32;33541;-89
2021/12/27 02:23:17;;;;;;;23.15;14.82;;;;;;;8.62;30.01;98707.28;4482134;32;35266;-84
2021/12/27 02:25:47;;;;;;;22.20;14.70;;;;;;;8.88;29.89;98699.00;4483662;32;34069;-87
2021/12/27 02:28:17;;;;;;;24.58;15.55;;;;;;;8.79;30.24;98710.09;4483864;32;33692;-84
2021/12/27 02:30:46;;;;;;;25.58;15.73;;;;;;;8.72;30.17;98703.09;4483653;32;33887;-84
2021/12/27 02:33:14;;;;;;;21.30;14.85;;;;;;;9.00;29.50;98701.72;4482257;32;33607;-86
2021/12/27 02:35:43;;;;;;;24.30;14.02;;;;;;;8.76;29.99;98703.16;4469739;32;34507;-84
2021/12/27 02:38:32;;;;;;;24.80;15.25;;;;;;;8.81;30.56;98692.00;4483443;32;33376;-89
2021/12/27 02:41:00;;;;;;;25.40;15.98;;;;;;;8.59;30.82;98696.88;4482203;32;33687;-88
2021/12/27 02:43:29;;;;;;;22.15;14.68;;;;;;;8.53;31.34;98696.81;4482200;32;34031;-87
2021/12/27 02:45:57;;;;;;;22.67;14.95;;;;;;;9.04;31.06;98687.09;4482300;32;34504;-84
2021/12/27 02:48:28;;;;;;;22.17;14.45;;;;;;;8.68;31.46;98702.19;4483709;32;34299;-86
2021/12/27 02:50:56;;;;;;;23.92;14.77;;;;;;;8.71;31.47;98698.75;4482241;32;33583;-84
2021/12/27 02:53:25;;;;;;;24.42;14.65;;;;;;;9.10;31.50;98690.63;4483545;31;34079;-88
2021/12/27 02:55:54;;;;;;;25.65;15.52;;;;;;;9.25;31.22;98695.97;4481943;32;34855;-86
2021/12/27 02:58:22;;;;;;;23.48;14.07;;;;;;;9.08;31.32;98689.72;4483297;32;33652;-84
2021/12/27 03:00:52;;;;;;;23.75;14.98;;;;;;;8.97;31.42;98683.56;4483380;32;33710;-87
2021/12/27 03:03:20;;;;;;;24.48;15.20;;;;;;;9.08;31.52;98687.12;4483407;32;33898;-83
2021/12/27 03:05:47;;;;;;;24.50;14.10;;;;;;;9.17;31.40;98684.69;4482091;32;33619;-84
2021/12/27 03:08:17;;;;;;;21.70;13.93;;;;;;;8.93;31.44;98686.97;4482461;32;34173;-88
2021/12/27 03:11:11;;;;;;;23.85;13.18;;;;;;;8.74;31.68;98686.75;4482166;32;33626;-87
2021/12/27 03:13:43;;;;;;;20.70;12.98;;;;;;;9.24;31.65;98676.13;4483163;32;33851;-84
2021/12/27 03:16:15;;;;;;;20.35;12.55;;;;;;;8.83;31.83;98677.41;4483089;32;33896;-85
2021/12/27 03:18:45;;;;;;;24.63;13.30;;;;;;;9.06;31.59;98673.34;4482261;32;33578;-84
2021/12/27 03:21:13;;;;;;;21.20;13.43;;;;;;;9.39;31.34;98674.53;4482316;32;33728;-86
2021/12/27 03:23:42;;;;;;;21.90;13.30;;;;;;;9.53;31.19;98674.66;4482859;32;34643;-84
2021/12/27 03:26:10;;;;;;;22.35;13.52;;;;;;;9.33;31.50;98671.91;4482185;32;33539;-88
2021/12/27 03:28:38;;;;;;;17.62;11.57;;;;;;;9.56;31.14;98680.72;4481940;32;34438;-85
2021/12/27 03:31:09;;;;;;;19.30;11.98;;;;;;;9.39;30.93;98672.78;4481046;32;32995;-88
2021/12/27 03:33:38;;;;;;;17.83;11.73;;;;;;;9.22;31.00;98671.78;4481906;32;34034;-87
2021/12/27 03:36:08;;;;;;;20.33;12.68;;;;;;;8.89;31.54;98672.28;4482129;32;33939;-88
2021/12/27 03:38:41;;;;;;;18.87;11.88;;;;;;;9.31;30.91;98669.28;4481952;32;33221;-84
2021/12/27 03:41:17;;;;;;;18.87;12.43;;;;;;;9.14;30.79;98666.53;4482950;32;33640;-87
2021/12/27 03:43:45;;;;;;;22.02;12.52;;;;;;;9.08;31.15;98669.03;4481315;32;34241;-84
2021/12/27 03:46:13;;;;;;;17.58;11.70;;;;;;;9.09;31.18;98659.56;4481475;32;33374;-87
2021/12/27 03:48:41;;;;;;;18.25;11.20;;;;;;;8.77;31.59;98658.34;4482162;31;33329;-84
2021/12/27 03:51:08;;;;;;;20.08;12.43;;;;;;;8.89;31.43;98669.69;4481335;32;33424;-88
2021/12/27 03:53:36;;;;;;;17.48;11.43;;;;;;;8.91;31.59;98665.41;4483056;32;33631;-88
2021/12/27 03:56:04;;;;;;;17.50;11.23;;;;;;;9.07;31.25;98684.56;4483008;32;33969;-84
2021/12/27 03:58:46;;;;;;;16.98;10.75;;;;;;;9.43;30.49;98678.88;4482278;32;34376;-84
2021/12/27 04:01:16;;;;;;;21.42;11.40;;;;;;;9.24;30.50;98667.47;4480916;32;33409;-88
2021/12/27 04:04:04;;;;;;;16.92;10.70;;;;;;;9.27;30.03;98668.38;4482194;32;34991;-84
2021/12/27 04:06:49;;;;;;;17.10;10.02;;;;;;;8.94;30.93;98679.25;4483016;32;35500;-84
2021/12/27 04:09:37;;;;;;;19.30;11.88;;;;;;;9.06;30.97;98672.47;4483040;32;33844;-87
2021/12/27 04:12:23;;;;;;;16.10;10.90;;;;;;;9.12;30.86;98678.56;4466470;32;34391;-84
2021/12/27 04:15:10;;;;;;;19.85;11.52;;;;;;;8.94;30.97;98678.34;4455083;32;34449;-85
2021/12/27 04:17:37;;;;;;;18.20;10.38;;;;;;;8.69;31.13;98677.22;4467511;32;33981;-87
2021/12/27 04:20:05;;;;;;;20.35;12.23;;;;;;;9.05;31.18;98678.47;4469562;32;33662;-83
2021/12/27 04:22:33;;;;;;;17.33;12.52;;;;;;;8.86;31.96;98669.66;4482819;32;33871;-83
2021/12/27 04:25:14;;;;;;;17.35;11.23;;;;;;;8.28;32.28;98675.78;4480968;32;35551;-83
2021/12/27 04:27:42;;;;;;;21.15;12.32;;;;;;;8.56;31.73;98672.72;4481919;32;34602;-88
2021/12/27 04:30:10;;;;;;;19.33;12.40;;;;;;;9.14;30.88;98661.34;4481595;31;33288;-86
2021/12/27 04:32:38;;;;;;;18.55;11.77;;;;;;;9.24;30.50;98667.47;4482901;32;33965;-84
2021/12/27 04:35:06;;;;;;;18.73;11.77;;;;;;;9.27;30.58;98663.19;4482877;32;34499;-86
2021/12/27 04:37:34;;;;;;;21.42;12.00;;;;;;;8.77;31.20;98667.84;4482975;32;33559;-88
2021/12/27 04:40:04;;;;;;;18.90;11.93;;;;;;;9.01;30.08;98670.69;4482312;32;33517;-88
2021/12/27 04:42:32;;;;;;;19.92;12.93;;;;;;;8.61;30.87;98674.53;4480049;32;33851;-84
2021/12/27 04:45:00;;;;;;;18.85;11.38;;;;;;;8.67;31.07;98669.44;4482704;32;33686;-88
2021/12/27 04:47:46;;;;;;;18.05;11.77;;;;;;;8.82;30.70;98671.31;4481560;32;34156;-84
2021/12/27 04:50:14;;;;;;;19.08;11.80;;;;;;;8.86;29.79;98662.75;4481194;32;33404;-83
2021/12/27 04:52:42;;;;;;;20.45;12.57;;;;;;;8.99;30.08;98671.53;4481434;31;33883;-88
2021/12/27 04:55:09;;;;;;;21.48;11.95;;;;;;;9.24;30.59;98668.38;4480647;32;35026;-84
2021/12/27 04:57:37;;;;;;;18.58;11.63;;;;;;;9.05;30.47;98671.59;4468456;32;34755;-84
2021/12/27 05:00:06;;;;;;;18.17;11.25;;;;;;;9.04;30.50;98672.44;4482200;32;33489;-83
2021/12/27 05:02:34;;;;;;;20.77;12.02;;;;;;;9.05;30.19;98666.41;4482403;32;34730;-88
2021/12/27 05:05:02;;;;;;;19.45;12.18;;;;;;;9.17;30.62;98671.75;4481339;32;34366;-89
2021/12/27 05:07:29;;;;;;;17.37;11.55;;;;;;;9.46;30.20;98672.00;4481205;32;33958;-84
2021/12/27 05:09:57;;;;;;;17.95;10.20;;;;;;;9.37;29.74;98668.47;4481591;32;33490;-84
2021/12/27 05:12:25;;;;;;;19.05;11.40;;;;;;;9.14;29.69;98669.13;4482351;32;34688;-87
2021/12/27 05:14:52;;;;;;;17.17;11.35;;;;;;;9.26;30.16;98676.13;4481272;32;33623;-87
2021/12/27 05:17:20;;;;;;;19.48;11.25;;;;;;;9.41;30.24;98672.81;4481132;32;33770;-88
2021/12/27 05:19:48;;;;;;;19.37;12.13;;;;;;;9.48;31.14;98672.91;4482475;32;33641;-84
2021/12/27 05:22:15;;;;;;;18.70;10.73;;;;;;;9.66;30.44;98668.72;4482180;32;33616;-84
2021/12/27 05:24:43;;;;;;;21.92;12.77;;;;;;;9.63;30.91;98672.16;4481804;32;35128;-85
2021/12/27 05:27:10;;;;;;;19.12;11.07;;;;;;;9.63;31.13;98676.47;4482577;32;33795;-89
2021/12/27 05:29:37;;;;;;;21.42;13.00;;;;;;;9.54;30.77;98674.66;4482404;32;34780;-84
2021/12/27 05:32:06;;;;;;;25.37;15.50;;;;;;;9.37;30.32;98669.34;4481407;32;33527;-83
2021/12/27 05:34:35;;;;;;;23.70;15.00;;;;;;;9.37;30.04;98671.94;4465406;32;34312;-85
2021/12/27 05:37:04;;;;;;;23.98;18.17;;;;;;;9.59;30.30;98667.81;4466122;32;35058;-86
2021/12/27 05:39:32;;;;;;;21.35;12.88;;;;;;;9.42;30.89;98664.22;4476257;32;33717;-87
2021/12/27 05:42:00;;;;;;;21.50;14.63;;;;;;;9.38;31.12;98667.63;4481796;32;33927;-88
2021/12/27 05:44:27;;;;;;;21.85;13.25;;;;;;;9.69;30.74;98667.03;4481772;32;33764;-82
2021/12/27 05:46:55;;;;;;;23.75;13.88;;;;;;;9.63;30.91;98671.31;4481601;32;34787;-89
2021/12/27 05:49:24;;;;;;;24.08;14.98;;;;;;;9.70;30.47;98666.19;4480703;32;34117;-84
2021/12/27 05:51:52;;;;;;;25.88;17.20;;;;;;;9.48;30.87;98667.72;4481227;31;34518;-84
2021/12/27 05:54:21;;;;;;;28.30;17.25;;;;;;;9.65;30.61;98665.28;4483016;32;34911;-88
2021/12/27 05:56:49;;;;;;;21.00;13.18;;;;;;;9.80;30.59;98672.28;4483086;32;32694;-87
2021/12/27 05:59:17;;;;;;;19.77;12.93;;;;;;;9.85;30.46;98665.44;4482564;32;33507;-85
2021/12/27 06:01:45;;;;;;;20.37;12.02;;;;;;;10.04;30.04;98665.56;4482160;32;33769;-85
2021/12/27 06:04:13;;;;;;;19.70;10.85;;;;;;;9.97;30.10;98662.94;4484327;32;35090;-86
2021/12/27 06:06:41;;;;;;;17.02;10.80;;;;;;;9.91;29.79;98656.84;4483680;32;32360;-85
2021/12/27 06:09:08;;;;;;;14.00;8.80;;;;;;;9.62;30.10;98654.91;4483887;32;33908;-85
2021/12/27 06:11:36;;;;;;;13.27;8.35;;;;;;;8.28;29.66;98660.28;4484038;32;34001;-87
2021/12/27 06:14:03;;;;;;;15.75;9.20;;;;;;;8.61;28.54;98653.00;4483842;32;33926;-85
2021/12/27 06:16:31;;;;;;;13.85;8.55;;;;;;;8.00;29.37;98651.28;4482731;32;32983;-88
2021/12/27 06:18:58;;;;;;;14.35;8.23;;;;;;;7.27;30.71;98658.72;4483746;32;33615;-88
2021/12/27 06:21:26;;;;;;;16.02;8.85;;;;;;;6.86;30.63;98654.47;4469219;32;33877;-83
2021/12/27 06:23:53;;;;;;;14.68;7.97;;;;;;;6.17;32.06;98658.22;4469892;32;34687;-85
2021/12/27 06:26:21;;;;;;;15.73;7.75;;;;;;;6.60;31.69;98654.00;4483582;32;34475;-88
2021/12/27 06:28:48;;;;;;;14.80;8.98;;;;;;;7.07;30.90;98660.91;4483883;32;34549;-85
2021/12/27 06:31:16;;;;;;;13.57;8.55;;;;;;;8.12;29.88;98658.34;4484005;32;33972;-86
2021/12/27 06:33:43;;;;;;;13.00;8.48;;;;;;;7.87;30.20;98651.94;4482755;32;33501;-89
2021/12/27 06:36:11;;;;;;;16.73;9.68;;;;;;;8.32;29.98;98655.16;4483086;32;33362;-87
2021/12/27 06:38:38;;;;;;;16.08;9.70;;;;;;;7.96;29.99;98656.41;4483940;32;34329;-85
2021/12/27 06:41:06;;;;;;;15.02;9.68;;;;;;;8.60;29.42;98646.97;4483851;32;34189;-89
2021/12/27 06:43:33;;;;;;;17.65;10.40;;;;;;;8.03;30.31;98642.72;4483667;32;33993;-84
2021/12/27 06:46:01;;;;;;;15.90;10.40;;;;;;;8.43;29.94;98645.88;4483453;32;33760;-89
2021/12/27 06:48:29;;;;;;;16.10;10.35;;;;;;;8.21;30.33;98648.12;4482762;32;33367;-85
2021/12/27 06:50:56;;;;;;;23.65;13.55;;;;;;;9.00;29.90;98642.25;4468523;32;32963;-85
2021/12/27 06:53:28;;;;;;;19.15;11.80;;;;;;;9.44;30.04;98640.09;4483343;31;33914;-83
2021/12/27 06:55:57;;;;;;;20.58;11.68;;;;;;;9.72;29.62;98642.91;4483531;32;33601;-85
2021/12/27 06:58:24;;;;;;;20.73;12.57;;;;;;;9.58;29.37;98640.19;4482519;32;33213;-86
2021/12/27 07:00:52;;;;;;;22.67;12.15;;;;;;;9.37;29.76;98643.47;4481883;32;33720;-85
2021/12/27 07:03:20;;;;;;;18.70;12.85;;;;;;;9.31;29.85;98642.53;4482945;32;34647;-85
2021/12/27 07:05:48;;;;;;;21.37;13.70;;;;;;;8.38;31.14;98656.16;4482332;32;33661;-88
2021/12/27 07:08:18;;;;;;;25.67;15.23;;;;;;;8.22;31.70;98657.63;4469658;32;33450;-88
2021/12/27 07:10:46;;;;;;;25.60;14.15;;;;;;;7.36;33.25;98654.56;4482288;32;34057;-88
2021/12/27 07:13:14;;;;;;;23.60;14.07;;;;;;;8.02;32.02;98654.75;4483198;32;33728;-88
2021/12/27 07:15:45;;;;;;;22.70;14.65;;;;;;;8.21;31.79;98653.28;4483094;32;33438;-89
2021/12/27 07:18:13;;;;;;;23.38;14.35;;;;;;;7.59;32.83;98654.94;4482268;32;33806;-89
2021/12/27 07:20:41;;;;;;;25.62;15.77;;;;;;;6.94;34.10;98651.25;4483233;32;35139;-88
2021/12/27 07:23:08;;;;;;;23.23;14.77;;;;;;;7.03;34.09;98646.25;4483249;32;34094;-88
2021/12/27 07:25:36;;;;;;;23.62;14.98;;;;;;;7.26;34.10;98641.50;4483449;32;33927;-84
2021/12/27 07:28:04;;;;;;;24.95;16.33;;;;;;;7.97;32.74;98655.53;4483414;32;34417;-88
2021/12/27 07:30:31;;;;;;;21.83;15.52;;;;;;;8.26;32.26;98661.13;4482627;32;34772;-87
2021/12/27 07:32:59;;;;;;;25.37;15.38;;;;;;;8.61;32.26;98660.75;4483191;32;35164;-87
2021/12/27 07:35:27;;;;;;;25.27;15.48;;;;;;;8.87;31.78;98651.59;4483330;32;34524;-88
2021/12/27 07:37:54;;;;;;;24.25;15.00;;;;;;;8.47;32.27;98661.44;4483338;32;33453;-85
2021/12/27 07:40:26;;;;;;;29.85;17.45;;;;;;;8.40;32.47;98661.34;4481484;32;33996;-84
2021/12/27 07:42:53;;;;;;;24.65;15.63;;;;;;;8.15;32.74;98668.72;4481897;31;34907;-85
2021/12/27 07:45:21;;;;;;;23.55;16.15;;;;;;;9.06;30.90;98647.50;4481612;32;34065;-88
2021/12/27 07:47:49;;;;;;;31.83;17.67;;;;;;;8.70;31.62;98653.97;4481056;32;34317;-86
2021/12/27 07:50:16;;;;;;;27.13;18.15;;;;;;;7.76;34.03;98656.94;4482724;32;33953;-89
2021/12/27 07:52:50;;;;;;;27.67;19.00;;;;;;;8.27;33.47;98663.72;4481925;32;34220;-89
2021/12/27 07:55:19;;;;;;;26.42;17.98;;;;;;;8.48;32.60;98665.75;4481777;32;33739;-84
2021/12/27 07:57:46;;;;;;;27.67;16.90;;;;;;;8.57;32.61;98653.81;4483197;32;33532;-87
2021/12/27 08:00:14;;;;;;;27.15;17.10;;;;;;;8.92;32.08;98649.06;4483035;32;34095;-84
2021/12/27 08:02:43;;;;;;;25.88;16.08;;;;;;;8.01;32.77;98644.41;4482734;32;35145;-87
2021/12/27 08:05:11;;;;;;;22.65;15.10;;;;;;;8.96;31.48;98636.16;4481824;32;33757;-85
2021/12/27 08:07:38;;;;;;;26.00;15.18;;;;;;;8.84;31.20;98643.78;4482091;32;33205;-90
2021/12/27 08:10:07;;;;;;;24.77;16.45;;;;;;;9.10;31.16;98646.66;4482982;32;34326;-85
2021/12/27 08:12:35;;;;;;;24.02;15.60;;;;;;;8.96;31.34;98640.47;4483129;32;34179;-85
2021/12/27 08:15:04;;;;;;;21.98;14.50;;;;;;;9.37;30.75;98643.47;4481432;32;33938;-89
2021/12/27 08:17:33;;;;;;;22.75;13.88;;;;;;;8.88;30.73;98636.94;4482734;32;33850;-84
2021/12/27 08:20:00;;;;;;;29.33;15.73;;;;;;;8.73;30.94;98640.22;4481873;32;33888;-89
2021/12/27 08:22:27;;;;;;;27.20;16.98;;;;;;;8.66;31.64;98634.09;4483223;32;34055;-83
2021/12/27 08:24:55;;;;;;;24.77;14.45;;;;;;;8.25;32.45;98647.31;4481633;32;33668;-84
2021/12/27 08:27:24;;;;;;;22.95;14.13;;;;;;;8.21;31.87;98637.81;4482568;32;32849;-83
2021/12/27 08:29:52;;;;;;;24.58;13.98;;;;;;;7.98;32.55;98647.81;4481424;32;34717;-85
2021/12/27 08:32:19;;;;;;;23.02;14.77;;;;;;;7.78;32.86;98650.09;4482988;32;34473;-89
2021/12/27 08:34:47;;;;;;;20.48;13.32;;;;;;;8.85;31.07;98642.06;4483168;32;35073;-86
2021/12/27 08:37:14;;;;;;;18.92;12.93;;;;;;;8.69;30.55;98641.91;4483406;32;34607;-86
2021/12/27 08:39:42;;;;;;;22.15;14.10;;;;;;;8.33;30.80;98646.56;4483014;32;33803;-91
2021/12/27 08:42:11;;;;;;;21.55;12.48;;;;;;;8.14;31.30;98654.06;4481717;32;35085;-84
2021/12/27 08:44:38;;;;;;;20.62;13.35;;;;;;;7.90;30.68;98657.16;4481585;32;34439;-84
2021/12/27 08:47:06;;;;;;;23.58;14.60;;;;;;;8.01;30.62;98654.75;4481297;32;33256;-88
2021/12/27 08:49:33;;;;;;;20.23;13.73;;;;;;;8.19;30.52;98659.31;4481623;32;33645;-87
2021/12/27 08:52:21;;;;;;;19.55;11.93;;;;;;;7.70;31.13;98662.00;4481353;32;34306;-88
2021/12/27 08:54:48;;;;;;;18.00;11.23;;;;;;;7.77;30.50;98665.56;4482421;32;34350;-84
2021/12/27 08:57:16;;;;;;;19.95;11.23;;;;;;;6.87;31.38;98662.25;4481023;32;33096;-84
2021/12/27 08:59:43;;;;;;;20.58;12.63;;;;;;;6.74;31.93;98665.41;4479754;32;34734;-88
2021/12/27 09:02:12;;;;;;;15.80;10.90;;;;;;;7.34;31.10;98661.38;4480920;32;34036;-84
2021/12/27 09:04:39;;;;;;;20.67;11.00;;;;;;;7.80;29.92;98666.50;4481776;32;33653;-84
2021/12/27 09:07:08;;;;;;;19.40;10.52;;;;;;;7.59;30.84;98665.28;4482706;32;33901;-84
2021/12/27 09:09:35;;;;;;;23.33;15.07;;;;;;;6.41;30.24;98663.06;4482457;32;33616;-85
2021/12/27 09:12:03;;;;;;;16.85;10.20;;;;;;;7.65;30.41;98655.94;4466751;32;34647;-89
2021/12/27 09:14:31;;;;;;;19.10;10.52;;;;;;;7.18;31.15;98655.97;4480691;32;33957;-88
2021/12/27 09:16:59;;;;;;;16.85;10.75;;;;;;;8.09;29.60;98655.72;4482667;32;34279;-84
2021/12/27 09:19:26;;;;;;;19.85;10.25;;;;;;;8.56;28.51;98641.72;4481483;32;34603;-84
2021/12/27 09:21:54;;;;;;;15.23;10.18;;;;;;;8.85;28.61;98653.28;4482422;32;33883;-88
2021/12/27 09:24:22;;;;;;;14.45;9.13;;;;;;;9.30;28.28;98646.84;4482088;32;33778;-87
2021/12/27 09:26:50;;;;;;;18.30;9.20;;;;;;;8.91;26.49;98653.34;4466488;32;33119;-87
2021/12/27 09:29:17;;;;;;;14.93;9.82;;;;;;;8.80;26.76;98643.75;4480750;32;33823;-88
2021/12/27 09:31:45;;;;;;;16.50;10.10;;;;;;;8.75;27.39;98641.09;4482866;32;34262;-88
2021/12/27 09:34:12;;;;;;;16.40;9.23;;;;;;;8.75;26.76;98634.22;4483702;32;33311;-86
2021/12/27 09:36:41;;;;;;;15.07;9.38;;;;;;;8.64;26.56;98630.66;4484092;32;33343;-88
2021/12/27 09:39:08;;;;;;;15.18;8.65;;;;;;;7.71;27.64;98640.53;4484293;32;34524;-84
2021/12/27 09:41:35;;;;;;;14.15;8.57;;;;;;;8.34;26.90;98640.56;4482777;32;33746;-84
2021/12/27 09:44:04;;;;;;;15.75;9.05;;;;;;;8.55;26.83;98627.94;4482021;32;33667;-86
2021/12/27 09:46:33;;;;;;;16.80;9.55;;;;;;;8.84;27.00;98623.13;4481033;31;34181;-84
2021/12/27 09:49:06;;;;;;;18.30;10.02;;;;;;;7.92;27.26;98628.81;4482532;32;34661;-89
2021/12/27 09:51:34;;;;;;;15.57;9.63;;;;;;;8.97;26.88;98626.69;4482595;32;35179;-86
2021/12/27 09:54:02;;;;;;;15.10;9.35;;;;;;;8.70;27.33;98616.91;4482537;31;32478;-87
2021/12/27 09:56:30;;;;;;;15.70;9.50;;;;;;;8.48;27.55;98615.78;4483254;32;33441;-86
2021/12/27 09:58:59;;;;;;;16.77;9.35;;;;;;;9.35;26.41;98614.13;4482148;32;34386;-87
2021/12/27 10:01:28;;;;;;;15.77;10.40;;;;;;;7.89;28.00;98613.28;4474129;32;34633;-88
2021/12/27 10:04:00;;;;;;;15.25;8.95;;;;;;;9.19;27.19;98615.72;4482315;32;34485;-84
2021/12/27 10:06:31;;;;;;;15.85;9.32;;;;;;;9.03;25.95;98611.25;4483674;32;33872;-89
2021/12/27 10:09:05;;;;;;;16.40;9.25;;;;;;;9.34;26.53;98608.94;4482211;32;34332;-90
2021/12/27 10:11:35;;;;;;;16.73;8.85;;;;;;;8.42;27.86;98615.75;4482754;32;34124;-90
2021/12/27 10:14:09;;;;;;;15.55;9.07;;;;;;;9.01;27.85;98607.78;4482428;32;34045;-84
2021/12/27 10:16:47;;;;;;;14.43;8.73;;;;;;;9.26;26.76;98608.88;4482410;32;33268;-85
2021/12/27 10:19:16;;;;;;;15.02;8.52;;;;;;;9.25;25.74;98610.59;4483597;32;34846;-86
2021/12/27 10:21:46;;;;;;;13.40;8.25;;;;;;;8.45;26.81;98614.06;4483002;32;34009;-83
2021/12/27 10:24:27;;;;;;;18.65;10.32;;;;;;;8.95;25.46;98607.72;4482289;32;33949;-89
2021/12/27 10:26:57;;;;;;;15.98;10.50;;;;;;;7.83;27.09;98614.03;4482498;32;33169;-87
2021/12/27 10:29:26;;;;;;;15.43;9.07;;;;;;;9.08;25.54;98593.19;4482341;32;34816;-85
2021/12/27 10:32:04;;;;;;;13.18;8.48;;;;;;;9.05;26.54;98608.66;4483128;32;34909;-89
2021/12/27 10:34:35;;;;;;;16.85;10.60;;;;;;;9.42;26.31;98608.16;4483438;32;34207;-89
2021/12/27 10:37:05;;;;;;;14.35;8.30;;;;;;;8.87;25.41;98604.19;4483771;32;33613;-88
2021/12/27 10:39:50;;;;;;;16.58;10.05;;;;;;;9.55;24.97;98610.88;4481337;32;34294;-86
2021/12/27 10:42:36;;;;;;;15.90;10.23;;;;;;;8.96;26.12;98604.28;4479994;32;34237;-85
2021/12/27 10:45:08;;;;;;;19.70;10.25;;;;;;;9.10;25.54;98601.84;4465596;32;33729;-84
2021/12/27 10:47:38;;;;;;;18.33;9.77;;;;;;;9.38;25.44;98605.53;4481374;32;33148;-85
2021/12/27 10:50:27;;;;;;;15.95;10.35;;;;;;;9.46;25.44;98596.97;4482356;32;34091;-85
2021/12/27 10:53:01;;;;;;;15.00;9.73;;;;;;;9.02;25.45;98606.94;4453697;32;34152;-85
2021/12/27 10:55:48;;;;;;;13.70;8.93;;;;;;;9.56;24.67;98603.09;4455571;32;34038;-88
2021/12/27 10:58:18;;;;;;;17.62;9.40;;;;;;;10.37;24.23;98594.97;4483208;31;33377;-87
2021/12/27 11:01:19;;;;;;;16.73;11.23;;;;;;;10.96;23.58;98599.50;4480999;32;33547;-85
2021/12/27 11:03:51;;;;;;;16.70;9.70;;;;;;;10.58;23.87;98597.66;4466392;32;34847;-86
2021/12/27 11:06:25;;;;;;;15.02;8.95;;;;;;;10.71;23.85;98585.59;4468309;32;33626;-83
2021/12/27 11:08:53;;;;;;;18.10;9.85;;;;;;;11.03;22.70;98593.47;4479308;32;34584;-86
2021/12/27 11:11:22;;;;;;;20.25;9.60;;;;;;;10.81;22.77;98581.31;4481061;32;33448;-84
2021/12/27 11:13:52;;;;;;;15.27;8.18;;;;;;;10.51;23.09;98584.69;4481605;32;34944;-85
2021/12/27 11:16:20;;;;;;;16.33;8.43;;;;;;;10.03;23.50;98584.41;4471053;32;33605;-83
2021/12/27 11:18:48;;;;;;;15.40;8.35;;;;;;;10.14;23.87;98571.53;4473581;32;33564;-83
2021/12/27 11:21:21;;;;;;;15.65;10.20;;;;;;;10.76;23.50;98583.00;4481998;32;34756;-85
2021/12/27 11:23:50;;;;;;;16.23;8.98;;;;;;;10.49;24.18;98584.66;4480460;32;33999;-86
2021/12/27 11:26:32;;;;;;;13.48;8.10;;;;;;;9.90;23.76;98577.44;4480182;32;34718;-83
2021/12/27 11:29:12;;;;;;;15.85;9.75;;;;;;;10.79;23.23;98568.31;4468920;32;32948;-86
2021/12/27 11:31:39;;;;;;;15.13;9.55;;;;;;;11.06;22.89;98574.44;4481700;32;34549;-82
2021/12/27 11:34:12;;;;;;;19.15;9.80;;;;;;;10.59;22.93;98559.66;4481081;32;33906;-86
2021/12/27 11:36:53;;;;;;;17.00;10.43;;;;;;;11.10;22.76;98570.97;4472799;32;33582;-86
2021/12/27 11:39:28;;;;;;;17.83;9.73;;;;;;;11.03;23.16;98572.72;4477539;32;33536;-87
2021/12/27 11:42:02;;;;;;;17.55;9.98;;;;;;;10.90;23.55;98568.34;4480452;32;34589;-85
2021/12/27 11:44:54;;;;;;;15.70;9.50;;;;;;;11.22;23.03;98558.03;4481380;32;34736;-85